| time (UTC) | temp F | wind direction | speed MPH | gust MPH | rain 1hr in | rain 24hr in | rain mn in | humidity % | barometer mb |
| 20260509044546 | 59 | 157 | 0.0 | 0.0 | 0.00 | 1.03 | 1.03 | 95 | 1010.7 |
| 20260509043048 | 59 | 157 | 0.0 | 0.0 | 0.00 | 1.03 | 1.03 | 95 | 1010.8 |
| 20260509041549 | 59 | 157 | 0.0 | 0.0 | 0.01 | 1.03 | 1.03 | 95 | 1010.6 |
| 20260509040046 | 59 | 157 | 0.0 | 0.0 | 0.01 | 1.03 | 1.03 | 95 | 1010.6 |
| 20260509034545 | 60 | 157 | 0.0 | 0.0 | 0.01 | 1.03 | 1.03 | 95 | 1010.6 |
| 20260509033102 | 60 | 157 | 0.0 | 0.0 | 0.01 | 1.03 | 1.03 | 95 | 1010.7 |
| 20260509031542 | 60 | 158 | 0.0 | 0.0 | 0.00 | 1.02 | 1.02 | 95 | 1010.4 |
| 20260509030047 | 61 | 104 | 0.0 | 0.0 | 0.00 | 1.02 | 1.02 | 95 | 1010.1 |
| 20260509024549 | 61 | 107 | 0.0 | 4.0 | 0.00 | 1.02 | 1.02 | 95 | 1009.6 |
| 20260509023042 | 61 | 223 | 2.0 | 4.0 | 0.00 | 1.02 | 1.02 | 95 | 1009.1 |
| 20260509021541 | 61 | 153 | 0.0 | 0.0 | 0.00 | 1.02 | 1.02 | 95 | 1008.8 |
| 20260509020040 | 62 | 157 | 0.0 | 0.0 | 0.00 | 1.02 | 1.02 | 95 | 1008.4 |
| 20260509014540 | 62 | 120 | 0.0 | 0.0 | 0.00 | 1.02 | 1.02 | 95 | 1008.3 |
| 20260509013046 | 62 | 161 | 0.0 | 0.0 | 0.00 | 1.02 | 1.02 | 95 | 1008.1 |
| 20260509011539 | 63 | 174 | 1.0 | 6.0 | 0.02 | 1.02 | 1.02 | 94 | 1007.8 |
| 20260509010039 | 63 | 180 | 1.0 | 5.0 | 0.05 | 1.02 | 1.02 | 94 | 1007.5 |
| 20260509004552 | 63 | 173 | 3.0 | 9.0 | 0.07 | 1.02 | 1.02 | 94 | 1007.0 |
| 20260509003041 | 62 | 161 | 4.0 | 7.0 | 0.10 | 1.02 | 1.02 | 94 | 1007.2 |
| 20260509001537 | 62 | 175 | 5.0 | 9.0 | 0.17 | 1.00 | 1.00 | 94 | 1007.7 |
| 20260509000043 | 62 | 222 | 1.0 | 4.0 | 0.56 | 0.97 | 0.97 | 94 | 1007.7 |
| 20260508234537 | 62 | 201 | 2.0 | 5.0 | 0.95 | 0.95 | 0.95 | 93 | 1007.3 |
| 20260508233036 | 62 | 169 | 2.0 | 8.0 | 0.91 | 0.91 | 0.91 | 92 | 1007.6 |
| 20260508231543 | 62 | 41 | 5.0 | 15.0 | 0.83 | 0.83 | 0.83 | 90 | 1007.5 |
| 20260508230031 | 64 | 360 | 20.0 | 41.0 | 0.37 | 0.37 | 0.37 | 84 | 1008.0 |
| 20260508224548 | 78 | 314 | 8.0 | 21.0 | 0.00 | 0.00 | 0.00 | 58 | 1005.8 |
| 20260508223027 | 79 | 148 | 3.0 | 7.0 | 0.00 | 0.00 | 0.00 | 55 | 1004.9 |
| 20260508221532 | 80 | 171 | 2.0 | 7.0 | 0.00 | 0.00 | 0.00 | 53 | 1006.0 |
| 20260508220031 | 82 | 161 | 4.0 | 9.0 | 0.00 | 0.00 | 0.00 | 51 | 1006.1 |
| 20260508214531 | 82 | 222 | 3.0 | 11.0 | 0.00 | 0.00 | 0.00 | 51 | 1006.2 |
| 20260508213031 | 83 | 169 | 3.0 | 9.0 | 0.00 | 0.00 | 0.00 | 51 | 1006.4 |
| 20260508211522 | 83 | 217 | 2.0 | 9.0 | 0.00 | 0.00 | 0.00 | 51 | 1006.9 |
| 20260508210016 | 83 | 180 | 5.0 | 9.0 | 0.00 | 0.00 | 0.00 | 50 | 1007.2 |
| 20260508204510 | 82 | 209 | 4.0 | 10.0 | 0.00 | 0.00 | 0.00 | 50 | 1007.3 |
| 20260508203011 | 82 | 263 | 3.0 | 10.0 | 0.00 | 0.00 | 0.00 | 51 | 1007.7 |
| 20260508201508 | 81 | 249 | 5.0 | 10.0 | 0.00 | 0.00 | 0.00 | 50 | 1007.9 |
| 20260508200112 | 81 | 222 | 3.0 | 12.0 | 0.00 | 0.00 | 0.00 | 51 | 1008.3 |
| 20260508194503 | 80 | 236 | 2.0 | 9.0 | 0.00 | 0.00 | 0.00 | 51 | 1008.5 |
| 20260508193106 | 79 | 171 | 4.0 | 10.0 | 0.00 | 0.00 | 0.00 | 52 | 1008.6 |
| 20260508193005 | 79 | 225 | 3.0 | 10.0 | 0.00 | 0.00 | 0.00 | 51 | 1008.7 |
| 20260508191558 | 79 | 173 | 5.0 | 15.0 | 0.00 | 0.00 | 0.00 | 49 | 1008.9 |
| 20260508190055 | 79 | 170 | 4.0 | 11.0 | 0.00 | 0.00 | 0.00 | 50 | 1009.0 |
| 20260508184554 | 78 | 257 | 5.0 | 14.0 | 0.00 | 0.00 | 0.00 | 49 | 1008.9 |
| 20260508183113 | 78 | 189 | 6.0 | 12.0 | 0.00 | 0.00 | 0.00 | 49 | 1009.0 |
| 20260508181608 | 77 | 192 | 6.0 | 14.0 | 0.00 | 0.00 | 0.00 | 50 | 1009.2 |
| 20260508180048 | 77 | 170 | 7.0 | 12.0 | 0.00 | 0.00 | 0.00 | 50 | 1009.6 |
| 20260508174544 | 77 | 240 | 5.0 | 13.0 | 0.00 | 0.00 | 0.00 | 54 | 1009.9 |
| 20260508173042 | 76 | 213 | 6.0 | 15.0 | 0.00 | 0.00 | 0.00 | 53 | 1010.4 |
| 20260508171548 | 76 | 197 | 6.0 | 14.0 | 0.00 | 0.00 | 0.00 | 54 | 1010.6 |
| 20260508170037 | 75 | 198 | 6.0 | 13.0 | 0.00 | 0.00 | 0.00 | 54 | 1010.8 |
| 20260508164533 | 75 | 210 | 7.0 | 14.0 | 0.00 | 0.00 | 0.00 | 56 | 1011.4 |
| 20260508163030 | 74 | 203 | 6.0 | 17.0 | 0.00 | 0.00 | 0.00 | 56 | 1011.4 |
| 20260508161534 | 73 | 187 | 5.0 | 13.0 | 0.00 | 0.00 | 0.00 | 58 | 1011.4 |
| 20260508160027 | 72 | 176 | 7.0 | 18.0 | 0.00 | 0.00 | 0.00 | 57 | 1011.7 |
| 20260508154520 | 72 | 205 | 6.0 | 16.0 | 0.00 | 0.00 | 0.00 | 59 | 1011.8 |
| 20260508153018 | 71 | 196 | 5.0 | 12.0 | 0.00 | 0.00 | 0.00 | 61 | 1012.0 |
| 20260508151514 | 69 | 174 | 7.0 | 18.0 | 0.00 | 0.00 | 0.00 | 61 | 1012.5 |
| 20260508150019 | 69 | 148 | 7.0 | 15.0 | 0.00 | 0.00 | 0.00 | 62 | 1012.6 |
| 20260508144517 | 68 | 218 | 6.0 | 15.0 | 0.00 | 0.00 | 0.00 | 64 | 1013.0 |
| 20260508143016 | 67 | 175 | 4.0 | 10.0 | 0.00 | 0.00 | 0.00 | 66 | 1013.2 |
| 20260508141608 | 66 | 230 | 5.0 | 9.0 | 0.00 | 0.00 | 0.00 | 69 | 1013.4 |
| 20260508140105 | 65 | 240 | 5.0 | 11.0 | 0.00 | 0.00 | 0.00 | 70 | 1013.4 |
| 20260508134557 | 63 | 156 | 3.0 | 10.0 | 0.00 | 0.00 | 0.00 | 73 | 1013.4 |
| 20260508133050 | 61 | 211 | 2.0 | 9.0 | 0.00 | 0.00 | 0.00 | 76 | 1013.6 |
| 20260508131556 | 59 | 221 | 3.0 | 7.0 | 0.00 | 0.00 | 0.00 | 79 | 1013.5 |
| 20260508130044 | 57 | 162 | 3.0 | 7.0 | 0.00 | 0.00 | 0.00 | 81 | 1013.5 |
| 20260508124545 | 56 | 155 | 2.0 | 7.0 | 0.00 | 0.00 | 0.00 | 82 | 1013.5 |
| 20260508123045 | 55 | 165 | 2.0 | 5.0 | 0.00 | 0.00 | 0.00 | 82 | 1013.4 |
| 20260508121543 | 54 | 141 | 1.0 | 3.0 | 0.00 | 0.00 | 0.00 | 81 | 1013.5 |
| 20260508120042 | 54 | 165 | 0.0 | 1.0 | 0.00 | 0.00 | 0.00 | 80 | 1013.4 |
| 20260508114540 | 54 | 173 | 0.0 | 2.0 | 0.00 | 0.00 | 0.00 | 80 | 1013.4 |
| 20260508113103 | 54 | 140 | 0.0 | 5.0 | 0.00 | 0.00 | 0.00 | 79 | 1013.1 |
| 20260508111536 | 54 | 150 | 1.0 | 2.0 | 0.00 | 0.00 | 0.00 | 78 | 1013.0 |
| 20260508110035 | 55 | 167 | 1.0 | 2.0 | 0.00 | 0.00 | 0.00 | 78 | 1012.9 |
| 20260508104547 | 55 | 165 | 0.0 | 2.0 | 0.00 | 0.00 | 0.00 | 76 | 1012.8 |
| 20260508103034 | 55 | 153 | 0.0 | 3.0 | 0.00 | 0.00 | 0.00 | 75 | 1012.8 |
| 20260508101540 | 56 | 153 | 0.0 | 3.0 | 0.00 | 0.00 | 0.00 | 74 | 1012.6 |
| 20260508100037 | 56 | 174 | 1.0 | 3.0 | 0.00 | 0.00 | 0.00 | 73 | 1012.5 |
| 20260508094531 | 56 | 195 | 2.0 | 6.0 | 0.00 | 0.00 | 0.00 | 73 | 1012.2 |
| 20260508093033 | 56 | 192 | 1.0 | 4.0 | 0.00 | 0.00 | 0.00 | 73 | 1012.1 |
| 20260508091533 | 56 | 207 | 1.0 | 6.0 | 0.00 | 0.00 | 0.00 | 73 | 1012.0 |
| 20260508090038 | 56 | 165 | 0.0 | 2.0 | 0.00 | 0.00 | 0.00 | 72 | 1012.1 |
| 20260508084528 | 56 | 162 | 0.0 | 5.0 | 0.00 | 0.00 | 0.00 | 72 | 1012.1 |
| 20260508083035 | 55 | 173 | 1.0 | 3.0 | 0.00 | 0.00 | 0.00 | 73 | 1012.2 |
| 20260508081526 | 54 | 156 | 1.0 | 3.0 | 0.00 | 0.00 | 0.00 | 75 | 1012.4 |
| 20260508080024 | 53 | 164 | 0.0 | 3.0 | 0.00 | 0.00 | 0.00 | 76 | 1012.6 |
| 20260508074522 | 53 | 166 | 0.0 | 1.0 | 0.00 | 0.00 | 0.00 | 76 | 1012.8 |
| 20260508073025 | 53 | 166 | 0.0 | 1.0 | 0.00 | 0.00 | 0.00 | 76 | 1013.0 |
| 20260508071520 | 53 | 159 | 0.0 | 0.0 | 0.00 | 0.00 | 0.00 | 74 | 1013.3 |
| 20260508070015 | 54 | 159 | 0.0 | 0.0 | 0.00 | 0.00 | 0.00 | 73 | 1013.5 |
| 20260508064543 | 55 | 159 | 0.0 | 0.0 | 0.00 | 0.00 | 0.00 | 72 | 1013.6 |
| 20260508063015 | 55 | 159 | 0.0 | 0.0 | 0.00 | 0.00 | 0.00 | 72 | 1013.5 |
| 20260508061510 | 55 | 140 | 0.0 | 1.0 | 0.00 | 0.00 | 0.00 | 72 | 1013.7 |
| 20260508060006 | 56 | 140 | 0.0 | 0.0 | 0.00 | 0.00 | 0.00 | 70 | 1013.7 |
| 20260508054504 | 57 | 140 | 0.0 | 1.0 | 0.00 | 0.00 | 0.00 | 69 | 1013.7 |
| 20260508053002 | 57 | 140 | 0.0 | 3.0 | 0.00 | 0.00 | 0.00 | 69 | 1013.6 |
| 20260508051602 | 58 | 130 | 0.0 | 1.0 | 0.00 | 0.00 | 0.00 | 68 | 1013.6 |
| 20260508050101 | 58 | 142 | 0.0 | 3.0 | 0.00 | 0.00 | 0.00 | 67 | 1013.6 |